Time;durP1;ratioP1;P1;durP2;ratioP2;P2;SDS_P1;SDS_P2;PMS_P1;PMS_P2;Temp;Humidity;BMP_temperature;BMP_pressure;BME280_temperature;BME280_humidity;BME280_pressure;Samples;Min_cycle;Max_cycle;Signal;HPM_P1;HPM_P2
2023/08/22 00:01:47;;;;;;;11.98;8.32;;;21.50;99.90;;;;;;6308540;22;20023;-90
2023/08/22 00:04:44;;;;;;;13.50;8.98;;;21.50;99.90;;;;;;6287099;22;20031;-90
2023/08/22 00:07:32;;;;;;;9.73;8.57;;;21.50;99.90;;;;;;6288152;22;20122;-91
2023/08/22 00:10:20;;;;;;;15.35;8.85;;;21.40;1.00;;;;;;6309504;22;20019;-91
2023/08/22 00:13:07;;;;;;;13.30;8.60;;;21.40;99.90;;;;;;6286038;22;20030;-90
2023/08/22 00:15:59;;;;;;;14.23;9.98;;;21.30;99.90;;;;;;6311176;22;20081;-89
2023/08/22 00:18:47;;;;;;;15.77;9.90;;;21.30;99.90;;;;;;6287947;22;20019;-92
2023/08/22 00:21:34;;;;;;;13.35;9.30;;;21.20;1.00;;;;;;6306639;22;20030;-91
2023/08/22 00:24:28;;;;;;;12.98;9.55;;;21.20;99.90;;;;;;6308892;22;20026;-90
2023/08/22 00:27:37;;;;;;;11.33;8.93;;;21.20;99.90;;;;;;6290161;22;20019;-91
2023/08/22 00:30:25;;;;;;;11.10;8.53;;;21.10;99.90;;;;;;6285939;22;20242;-90
2023/08/22 00:33:16;;;;;;;11.98;8.55;;;21.00;1.00;;;;;;6287485;22;20101;-90
2023/08/22 00:36:04;;;;;;;11.02;9.63;;;21.00;99.90;;;;;;6307538;22;20019;-92
2023/08/22 00:38:51;;;;;;;13.77;10.70;;;21.00;99.90;;;;;;6286187;22;20030;-91
2023/08/22 00:41:41;;;;;;;14.27;9.90;;;21.00;1.00;;;;;;6286111;22;20027;-92
2023/08/22 00:44:28;;;;;;;18.75;9.95;;;21.00;99.90;;;;;;6287068;22;20027;-91
2023/08/22 00:47:16;;;;;;;13.70;9.77;;;21.00;1.00;;;;;;6311710;22;20027;-89
2023/08/22 00:50:04;;;;;;;11.02;9.05;;;20.90;1.00;;;;;;6300152;22;20023;-91
2023/08/22 00:52:51;;;;;;;11.30;8.98;;;20.90;1.00;;;;;;6300190;22;20020;-91
2023/08/22 00:55:39;;;;;;;13.18;9.23;;;20.90;99.90;;;;;;6309661;22;20023;-90
2023/08/22 00:58:29;;;;;;;10.60;9.50;;;21.00;1.00;;;;;;6308607;22;20426;-90
2023/08/22 01:01:21;;;;;;;15.20;9.57;;;20.90;99.90;;;;;;6286504;22;20020;-89
2023/08/22 01:04:28;;;;;;;11.05;9.57;;;20.90;99.90;;;;;;6291081;22;20031;-90
2023/08/22 01:07:33;;;;;;;11.93;9.10;;;20.90;99.90;;;;;;6284752;22;20446;-90
2023/08/22 01:10:27;;;;;;;10.98;9.02;;;20.90;1.00;;;;;;6309235;22;20019;-90
2023/08/22 01:13:39;;;;;;;16.67;10.48;;;20.80;1.00;;;;;;6195537;23;20025;-90
2023/08/22 01:16:28;;;;;;;16.35;10.30;;;20.70;63.40;;;;;;6214565;23;20036;-90
2023/08/22 01:19:19;;;;;;;14.00;10.00;;;20.80;28.80;;;;;;6214728;23;20107;-90
2023/08/22 01:22:06;;;;;;;14.30;10.13;;;20.70;93.40;;;;;;6211638;23;20040;-91
2023/08/22 01:28:27;;;;;;;13.32;9.93;;;20.50;99.90;;;;;;6213806;23;20029;-90
2023/08/22 01:31:52;;;;;;;12.43;9.45;;;20.50;99.90;;;;;;6258171;22;20024;-91
2023/08/22 01:34:40;;;;;;;15.98;10.07;;;20.60;99.90;;;;;;6307689;22;20055;-91
2023/08/22 01:37:32;;;;;;;12.98;9.43;;;20.50;99.90;;;;;;6309576;22;20024;-90
2023/08/22 01:40:22;;;;;;;14.63;10.30;;;20.50;99.90;;;;;;6308737;22;20400;-90
2023/08/22 01:43:11;;;;;;;19.35;11.10;;;20.50;99.90;;;;;;6306717;22;20250;-89
2023/08/22 01:45:58;;;;;;;15.07;9.82;;;20.50;99.90;;;;;;6308585;22;20042;-90
2023/08/22 01:48:50;;;;;;;15.82;11.23;;;20.50;99.90;;;;;;6307230;22;20023;-90
2023/08/22 01:51:41;;;;;;;15.63;10.70;;;20.40;99.90;;;;;;6283298;22;20019;-91
2023/08/22 01:54:38;;;;;;;12.45;9.57;;;20.30;99.90;;;;;;6285564;22;20475;-89
2023/08/22 01:57:50;;;;;;;12.35;10.75;;;20.40;99.90;;;;;;6291565;22;20019;-90
2023/08/22 02:00:45;;;;;;;13.40;11.05;;;20.50;99.90;;;;;;6284809;22;20023;-91
2023/08/22 02:03:40;;;;;;;19.20;10.82;;;20.50;99.90;;;;;;6285056;22;20110;-90
2023/08/22 02:06:29;;;;;;;13.10;10.32;;;20.60;99.90;;;;;;6285793;22;20337;-93
2023/08/22 02:09:18;;;;;;;12.13;9.80;;;20.60;99.90;;;;;;6286123;22;20053;-91
2023/08/22 02:12:11;;;;;;;11.77;9.65;;;20.60;99.90;;;;;;6309635;22;20030;-91
2023/08/22 02:14:59;;;;;;;14.60;10.27;;;20.50;99.90;;;;;;6308161;22;20020;-91
2023/08/22 02:17:48;;;;;;;14.00;10.07;;;20.50;99.90;;;;;;6306974;22;20019;-91
2023/08/22 02:20:35;;;;;;;12.27;9.77;;;20.50;99.90;;;;;;6308310;22;20051;-91
2023/08/22 02:23:23;;;;;;;13.18;10.00;;;20.50;99.90;;;;;;6306868;22;20034;-90
2023/08/22 02:26:10;;;;;;;13.65;9.65;;;20.40;99.90;;;;;;6306231;22;20617;-90
2023/08/22 02:28:57;;;;;;;13.45;9.73;;;20.40;99.90;;;;;;6286550;22;20023;-90
2023/08/22 02:31:53;;;;;;;13.40;9.10;;;20.30;99.90;;;;;;6306487;22;20029;-91
2023/08/22 02:34:40;;;;;;;11.20;9.25;;;20.30;99.90;;;;;;6306858;22;20023;-91
2023/08/22 02:37:29;;;;;;;11.55;9.60;;;20.30;99.90;;;;;;6308564;22;20098;-90
2023/08/22 02:40:17;;;;;;;11.45;9.77;;;20.30;99.90;;;;;;6286805;22;20024;-91
2023/08/22 02:43:04;;;;;;;12.70;9.70;;;20.30;99.90;;;;;;6284596;22;20031;-90
2023/08/22 02:45:52;;;;;;;11.75;9.80;;;20.30;99.90;;;;;;6281837;22;20490;-90
2023/08/22 02:48:46;;;;;;;10.55;9.25;;;20.30;99.90;;;;;;6285610;22;20300;-89
2023/08/22 02:51:33;;;;;;;12.88;9.73;;;20.20;99.90;;;;;;6308882;22;20023;-91
2023/08/22 02:54:21;;;;;;;10.65;9.15;;;20.10;99.90;;;;;;6308107;22;20342;-91
2023/08/22 02:57:13;;;;;;;20.05;10.13;;;20.00;99.90;;;;;;6308080;22;20019;-90
2023/08/22 03:00:11;;;;;;;10.50;9.40;;;20.00;99.90;;;;;;6306805;22;20034;-90
2023/08/22 03:03:03;;;;;;;13.80;9.75;;;19.90;99.90;;;;;;6304355;22;20023;-91
2023/08/22 03:05:51;;;;;;;13.88;10.30;;;19.80;99.90;;;;;;6315699;22;20099;-91
2023/08/22 03:08:50;;;;;;;12.43;9.73;;;19.80;99.90;;;;;;6320341;22;20062;-91
2023/08/22 03:11:39;;;;;;;15.75;9.80;;;19.90;99.90;;;;;;6309092;22;20295;-91
2023/08/22 03:14:26;;;;;;;11.75;10.20;;;19.90;99.90;;;;;;6283453;22;20034;-90
2023/08/22 03:17:13;;;;;;;13.75;10.18;;;19.90;99.90;;;;;;6304338;22;20024;-90
2023/08/22 03:20:05;;;;;;;13.93;10.20;;;19.80;99.90;;;;;;6307766;22;20028;-90
2023/08/22 03:22:52;;;;;;;14.15;9.60;;;19.80;99.90;;;;;;6306892;22;20438;-90
2023/08/22 03:25:41;;;;;;;14.52;10.32;;;19.80;99.90;;;;;;6283112;22;20046;-90
2023/08/22 03:28:33;;;;;;;18.20;11.20;;;19.70;99.90;;;;;;6284761;22;20075;-90
2023/08/22 03:31:22;;;;;;;15.25;10.88;;;19.70;99.90;;;;;;6285183;22;20108;-90
2023/08/22 03:34:10;;;;;;;19.63;11.75;;;19.60;99.90;;;;;;6310852;22;20015;-91
2023/08/22 03:36:58;;;;;;;14.88;9.93;;;19.60;99.90;;;;;;6308044;22;20019;-90
2023/08/22 03:39:45;;;;;;;12.57;9.88;;;19.60;99.90;;;;;;6309247;22;20031;-90
2023/08/22 03:42:32;;;;;;;19.25;12.70;;;19.70;99.90;;;;;;6307144;22;20023;-93
2023/08/22 03:45:19;;;;;;;16.48;12.60;;;19.70;99.90;;;;;;6307591;22;20046;-90
2023/08/22 03:48:06;;;;;;;18.17;12.43;;;19.70;99.90;;;;;;6287155;22;20027;-91
2023/08/22 03:50:55;;;;;;;15.18;10.50;;;19.60;99.90;;;;;;6310352;22;20106;-90
2023/08/22 03:53:42;;;;;;;16.58;10.35;;;19.60;99.90;;;;;;6309714;22;20019;-91
2023/08/22 03:56:42;;;;;;;15.10;10.95;;;19.60;99.90;;;;;;6287257;22;20051;-90
2023/08/22 03:59:44;;;;;;;15.07;10.35;;;19.60;99.90;;;;;;6292565;22;20035;-90
2023/08/22 04:02:34;;;;;;;13.77;11.07;;;19.50;99.90;;;;;;6291444;22;20031;-89
2023/08/22 04:05:32;;;;;;;14.63;10.88;;;19.60;99.90;;;;;;6293512;22;20027;-90
2023/08/22 04:08:21;;;;;;;12.43;10.48;;;19.60;99.90;;;;;;6310484;22;20038;-90
2023/08/22 04:11:14;;;;;;;12.00;10.38;;;19.50;99.90;;;;;;6310567;22;20031;-91
2023/08/22 04:14:02;;;;;;;14.95;10.95;;;19.50;99.90;;;;;;6310072;22;20336;-90
2023/08/22 04:16:52;;;;;;;11.68;10.45;;;19.50;99.90;;;;;;6287505;22;20046;-90
2023/08/22 04:19:39;;;;;;;12.18;10.88;;;19.40;99.90;;;;;;6308240;22;20455;-93
2023/08/22 04:22:27;;;;;;;13.25;10.63;;;19.30;99.90;;;;;;6308842;22;20058;-89
2023/08/22 04:25:14;;;;;;;16.75;12.05;;;19.20;99.90;;;;;;6309378;22;20362;-91
2023/08/22 04:28:02;;;;;;;13.75;11.95;;;19.10;99.90;;;;;;6307889;22;20106;-88
2023/08/22 04:31:00;;;;;;;14.13;11.40;;;19.10;99.90;;;;;;6310316;22;20303;-90
2023/08/22 04:33:48;;;;;;;15.07;11.85;;;19.00;99.90;;;;;;6284242;22;20023;-90
2023/08/22 04:36:36;;;;;;;18.73;11.68;;;19.00;99.90;;;;;;6307121;22;20023;-88
2023/08/22 04:39:29;;;;;;;14.15;11.18;;;19.00;99.90;;;;;;6285619;22;20027;-86
2023/08/22 04:42:16;;;;;;;13.35;11.30;;;19.00;99.90;;;;;;6284075;22;20118;-86
2023/08/22 04:45:06;;;;;;;15.30;11.38;;;19.10;99.90;;;;;;6309687;22;20130;-87
2023/08/22 04:47:53;;;;;;;12.30;11.00;;;19.20;99.90;;;;;;6306912;22;20027;-88
2023/08/22 04:50:42;;;;;;;15.30;10.57;;;19.20;99.90;;;;;;6306695;22;20035;-87
2023/08/22 04:53:31;;;;;;;13.32;11.10;;;19.20;99.90;;;;;;6282808;22;20034;-89
2023/08/22 04:56:20;;;;;;;18.00;10.18;;;19.20;99.90;;;;;;6286011;22;20041;-88
2023/08/22 04:59:08;;;;;;;14.38;10.85;;;19.20;99.90;;;;;;6286554;22;20126;-89
2023/08/22 05:01:55;;;;;;;16.00;10.57;;;19.10;99.90;;;;;;6305897;22;20038;-88
2023/08/22 05:04:50;;;;;;;13.60;11.35;;;19.10;99.90;;;;;;6309727;22;20415;-88
2023/08/22 05:07:37;;;;;;;14.27;10.57;;;19.10;99.90;;;;;;6285903;22;20054;-83
2023/08/22 05:10:25;;;;;;;12.70;10.00;;;19.20;99.90;;;;;;6282831;22;20027;-90
2023/08/22 05:13:12;;;;;;;11.35;10.18;;;19.20;99.90;;;;;;6304765;22;20027;-87
2023/08/22 05:16:02;;;;;;;13.18;9.88;;;19.30;99.90;;;;;;6306200;22;20020;-86
2023/08/22 05:18:49;;;;;;;16.20;10.80;;;19.40;99.90;;;;;;6281899;22;20108;-88
2023/08/22 05:21:36;;;;;;;18.05;9.65;;;19.40;99.90;;;;;;6307841;22;20027;-86
2023/08/22 05:24:30;;;;;;;15.40;10.02;;;19.50;99.90;;;;;;6306941;22;20037;-86
2023/08/22 05:27:38;;;;;;;11.60;9.45;;;19.50;99.90;;;;;;6243875;23;20035;-86
2023/08/22 05:30:26;;;;;;;12.63;9.48;;;19.60;99.90;;;;;;6228266;22;20118;-86
2023/08/22 05:33:16;;;;;;;12.60;9.13;;;19.70;99.90;;;;;;6283405;22;20026;-86
2023/08/22 05:36:05;;;;;;;13.10;8.98;;;19.80;99.90;;;;;;6285853;22;20330;-86
2023/08/22 05:38:52;;;;;;;14.18;10.27;;;19.90;99.90;;;;;;6306861;22;20675;-86
2023/08/22 05:41:41;;;;;;;9.38;8.48;;;20.00;99.90;;;;;;6316172;22;20020;-85
2023/08/22 05:44:35;;;;;;;12.80;9.18;;;19.90;99.90;;;;;;6290587;22;20042;-87
2023/08/22 05:47:27;;;;;;;15.15;9.23;;;19.90;99.90;;;;;;6308480;22;20026;-88
2023/08/22 05:50:15;;;;;;;18.90;10.00;;;20.00;99.90;;;;;;6308380;22;20041;-87
2023/08/22 06:22:54;;;;;;;10.43;7.13;;;21.30;99.90;;;;;;6278048;22;20027;-84
2023/08/22 06:25:42;;;;;;;12.40;7.20;;;21.40;1.00;;;;;;6252204;22;20035;-85
2023/08/22 06:57:25;;;;;;;8.68;5.78;;;22.90;95.10;;;;;;6138898;23;20010;-89
2023/08/22 07:08:43;;;;;;;6.97;4.35;;;23.70;99.90;;;;;;6015387;23;20025;-90
2023/08/22 07:12:16;;;;;;;;;;;;;;;;;;;;;
2023/08/22 07:16:16;;;;;;;;;;;;;;;;;;;;;
2023/08/22 07:19:34;;;;;;;;;;;;;;;;;;;;;
2023/08/22 07:23:13;;;;;;;7.57;3.97;;;25.20;65.10;;;;;;6063672;23;20023;-92
2023/08/22 07:27:00;;;;;;;5.47;3.42;;;25.80;1.00;;;;;;6153428;23;20032;-87
2023/08/22 07:38:27;;;;;;;;;;;;;;;;;;;;;
2023/08/22 07:41:49;;;;;;;;;;;;;;;;;;;;;
2023/08/22 07:45:59;;;;;;;;;;;;;;;;;;;;;
2023/08/22 07:53:09;;;;;;;3.50;3.08;;;28.80;1.00;;;;;;6175659;23;20029;-89
2023/08/22 07:56:45;;;;;;;9.23;3.38;;;29.40;99.90;;;;;;6168148;23;20121;-87
2023/08/22 08:00:08;;;;;;;5.00;2.60;;;29.40;99.90;;;;;;6167268;23;20033;-89
2023/08/22 08:02:57;;;;;;;3.05;2.75;;;29.70;99.90;;;;;;6213218;23;20067;-89
2023/08/22 08:05:45;;;;;;;2.60;2.40;;;30.50;48.90;;;;;;6213400;23;20032;-90
2023/08/22 08:08:53;;;;;;;3.83;2.90;;;31.50;99.90;;;;;;6197703;23;20450;-88
2023/08/22 08:11:42;;;;;;;3.90;2.58;;;32.20;33.30;;;;;;6211740;23;20055;-87
2023/08/22 08:14:34;;;;;;;6.43;2.40;;;33.10;79.30;;;;;;6172253;23;20035;-88
2023/08/22 08:17:25;;;;;;;4.63;2.80;;;33.20;1.00;;;;;;6212709;22;20039;-85
2023/08/22 08:20:14;;;;;;;8.05;3.58;;;32.30;17.10;;;;;;6276177;22;20031;-87
2023/08/22 08:23:02;;;;;;;4.30;2.60;;;32.20;1.00;;;;;;6279356;22;20284;-85
2023/08/22 08:25:51;;;;;;;8.25;3.00;;;31.40;1.00;;;;;;6285010;22;20046;-88
2023/08/22 08:28:39;;;;;;;6.65;3.50;;;30.80;1.00;;;;;;6290405;22;20028;-88
2023/08/22 08:31:29;;;;;;;4.25;2.70;;;30.60;1.00;;;;;;6263886;22;20099;-89
2023/08/22 08:34:30;;;;;;;5.32;2.75;;;30.90;1.00;;;;;;6263710;22;20318;-92
2023/08/22 08:37:18;;;;;;;5.07;2.72;;;31.60;1.00;;;;;;6254126;22;20019;-89
2023/08/22 08:40:20;;;;;;;6.03;2.90;;;32.50;99.90;;;;;;6254069;22;20031;-91
2023/08/22 08:44:06;;;;;;;5.72;2.70;;;33.40;1.00;;;;;;6157116;22;20031;-89
2023/08/22 09:00:11;;;;;;;5.80;2.50;;;34.90;1.00;;;;;;6115480;23;20022;-87
2023/08/22 09:03:34;;;;;;;7.75;2.55;;;34.80;1.00;;;;;;6212160;23;20035;-87
2023/08/22 09:06:26;;;;;;;4.85;2.92;;;36.20;1.00;;;;;;6244046;22;20027;-87
2023/08/22 09:09:15;;;;;;;4.53;2.97;;;36.40;99.90;;;;;;6274259;22;20038;-85
2023/08/22 09:12:15;;;;;;;9.63;3.63;;;35.80;1.00;;;;;;6251682;22;20023;-88
2023/08/22 09:15:19;;;;;;;7.50;2.88;;;35.60;1.00;;;;;;6254093;22;20130;-89
2023/08/22 09:18:15;;;;;;;6.47;2.67;;;35.30;99.90;;;;;;6275557;22;20066;-86
2023/08/22 09:21:06;;;;;;;5.50;3.00;;;34.70;87.80;;;;;;6273022;22;20121;-88
2023/08/22 09:24:12;;;;;;;9.20;3.13;;;34.50;99.90;;;;;;6254680;22;20078;-88
2023/08/22 09:27:29;;;;;;;5.07;3.70;;;34.30;52.20;;;;;;6249968;22;20027;-85
2023/08/22 09:30:24;;;;;;;7.93;2.80;;;33.50;10.20;;;;;;6275370;22;20099;-91
2023/08/22 09:33:21;;;;;;;9.40;2.90;;;33.40;99.90;;;;;;6256116;22;20020;-91
2023/08/22 09:36:11;;;;;;;6.68;2.90;;;33.60;1.00;;;;;;6257472;22;20043;-89
2023/08/22 09:38:58;;;;;;;6.78;3.10;;;33.70;1.00;;;;;;6275811;22;20023;-86
2023/08/22 09:41:57;;;;;;;6.38;2.90;;;33.40;99.90;;;;;;6252714;22;20023;-86
2023/08/22 09:44:46;;;;;;;5.20;2.67;;;33.40;99.90;;;;;;6254052;22;20030;-87
2023/08/22 09:47:44;;;;;;;7.15;3.13;;;33.70;1.00;;;;;;6271282;22;20020;-89
2023/08/22 09:50:38;;;;;;;10.60;3.35;;;33.50;1.00;;;;;;6272730;22;20023;-89
2023/08/22 09:53:33;;;;;;;6.60;2.90;;;33.50;1.00;;;;;;6271920;22;20342;-88
2023/08/22 09:56:31;;;;;;;9.02;3.35;;;33.60;1.00;;;;;;6274543;22;20020;-88
2023/08/22 09:59:29;;;;;;;8.63;2.92;;;33.70;1.00;;;;;;6274032;22;20603;-88
2023/08/22 10:02:22;;;;;;;6.43;2.85;;;35.10;1.00;;;;;;6272775;22;20038;-91
2023/08/22 10:05:13;;;;;;;4.40;3.03;;;35.70;99.90;;;;;;6252648;22;20024;-88
2023/08/22 10:08:04;;;;;;;3.55;2.88;;;35.50;99.90;;;;;;6251888;22;20292;-88
2023/08/22 10:10:52;;;;;;;5.47;2.65;;;36.00;99.90;;;;;;6273414;22;20034;-89
2023/08/22 10:13:43;;;;;;;4.70;2.58;;;35.60;1.00;;;;;;6251658;22;20023;-89
2023/08/22 10:16:39;;;;;;;7.22;2.80;;;36.10;99.90;;;;;;6252951;22;20023;-89
2023/08/22 10:19:52;;;;;;;9.82;2.83;;;36.80;99.90;;;;;;6255964;22;20460;-88
2023/08/22 10:22:44;;;;;;;5.28;2.83;;;36.10;99.90;;;;;;6273785;22;20027;-88
2023/08/22 10:26:05;;;;;;;4.60;2.58;;;36.40;99.90;;;;;;6251425;22;20054;-88
2023/08/22 10:29:12;;;;;;;5.45;2.75;;;37.80;99.90;;;;;;6273866;22;20034;-88
2023/08/22 10:32:19;;;;;;;4.38;2.70;;;37.20;99.90;;;;;;6273856;22;20035;-88
2023/08/22 10:35:12;;;;;;;7.63;2.95;;;36.70;99.90;;;;;;6273594;22;20020;-92
2023/08/22 10:42:28;;;;;;;3.40;2.65;;;37.60;99.90;;;;;;6151251;23;20018;-89
2023/08/22 10:45:35;;;;;;;5.72;2.58;;;38.70;1.00;;;;;;6130572;23;20036;-89
2023/08/22 10:48:46;;;;;;;4.20;2.75;;;38.30;1.00;;;;;;6150082;23;20026;-89
2023/08/22 10:51:43;;;;;;;4.28;2.85;;;38.40;99.90;;;;;;6148535;23;20043;-90
2023/08/22 10:54:31;;;;;;;8.48;3.13;;;38.40;99.90;;;;;;6160826;22;20032;-84
2023/08/22 10:57:25;;;;;;;8.07;2.90;;;37.30;1.00;;;;;;6252489;22;20047;-89
2023/08/22 11:00:52;;;;;;;9.30;3.15;;;36.80;99.90;;;;;;6253007;22;20027;-92
2023/08/22 11:14:49;;;;;;;5.82;2.78;;;36.00;1.00;;;;;;6271937;22;20506;-87
2023/08/22 11:17:40;;;;;;;5.13;3.88;;;36.50;99.90;;;;;;6273158;22;20024;-86
2023/08/22 11:24:25;;;;;;;5.63;3.30;;;38.60;99.90;;;;;;6271401;22;20024;-86
2023/08/22 11:31:45;;;;;;;4.38;3.17;;;37.10;69.90;;;;;;6209708;23;20404;-89
2023/08/22 11:34:33;;;;;;;3.10;2.65;;;36.30;1.00;;;;;;6211360;23;20435;-88
2023/08/22 11:42:30;;;;;;;;;;;;;;;;;;;;;
2023/08/22 11:46:09;;;;;;;;;;;;;;;;;;;;;
2023/08/22 11:54:14;;;;;;;;;;;;;;;;;;;;;
2023/08/22 11:57:34;;;;;;;4.03;2.67;;;38.10;99.90;;;;;;6166826;23;20032;-89
2023/08/22 12:00:49;;;;;;;6.40;2.92;;;38.70;99.90;;;;;;6182421;23;20040;-87
2023/08/22 12:07:49;;;;;;;3.40;2.80;;;38.20;99.90;;;;;;6181501;23;20022;-90
2023/08/22 12:11:09;;;;;;;3.28;2.65;;;37.20;99.90;;;;;;6161913;23;20128;-90
2023/08/22 12:27:16;;;;;;;4.05;2.53;;;36.00;99.90;;;;;;6185613;23;20397;-90
2023/08/22 12:30:42;;;;;;;4.88;2.70;;;36.00;99.90;;;;;;6182795;23;20419;-89
2023/08/22 12:33:33;;;;;;;6.80;2.95;;;37.80;99.90;;;;;;6190793;23;20043;-89
2023/08/22 12:36:38;;;;;;;7.07;2.92;;;39.70;99.90;;;;;;6178363;23;20036;-87
2023/08/22 12:39:25;;;;;;;3.97;2.50;;;39.60;99.90;;;;;;6217398;22;20035;-89
2023/08/22 12:42:13;;;;;;;8.68;2.85;;;40.80;99.90;;;;;;6293875;22;20016;-87
2023/08/22 12:45:03;;;;;;;3.22;2.28;;;41.10;99.90;;;;;;6300629;22;20024;-85
2023/08/22 12:48:01;;;;;;;7.03;2.50;;;41.60;99.90;;;;;;6284639;22;20020;-87
2023/08/22 12:50:54;;;;;;;7.10;2.53;;;40.70;99.90;;;;;;6290130;22;20495;-87
2023/08/22 12:53:44;;;;;;;6.45;2.78;;;40.50;99.90;;;;;;6263901;22;20024;-86
2023/08/22 12:56:57;;;;;;;5.70;2.90;;;40.20;99.90;;;;;;6261991;22;20023;-87
2023/08/22 13:00:00;;;;;;;5.38;2.65;;;40.80;99.90;;;;;;6276210;22;20302;-86
2023/08/22 13:03:04;;;;;;;4.20;2.42;;;40.90;99.90;;;;;;6271957;22;20173;-87
2023/08/22 13:05:56;;;;;;;5.50;2.40;;;41.40;99.90;;;;;;6251471;22;20031;-87
2023/08/22 13:09:14;;;;;;;;;;;;;;;;;;;;;
2023/08/22 13:16:38;;;;;;;4.50;2.70;;;43.30;99.90;;;;;;6186688;23;20103;-87
2023/08/22 13:19:28;;;;;;;4.57;2.83;;;41.90;99.90;;;;;;6190538;23;20028;-86
2023/08/22 13:23:23;;;;;;;3.22;2.53;;;40.90;99.90;;;;;;6196877;23;20071;-87
2023/08/22 13:26:13;;;;;;;4.43;2.70;;;41.20;99.90;;;;;;6189853;23;20032;-85
2023/08/22 13:29:01;;;;;;;5.28;2.78;;;40.40;99.90;;;;;;6189422;23;20036;-87
2023/08/22 13:31:53;;;;;;;2.72;2.45;;;39.20;99.90;;;;;;6212780;23;20028;-86
2023/08/22 13:34:43;;;;;;;6.13;2.65;;;39.00;99.90;;;;;;6192878;23;20024;-87
2023/08/22 13:37:32;;;;;;;6.45;2.65;;;38.70;99.90;;;;;;6214765;23;20100;-89
2023/08/22 13:40:20;;;;;;;2.92;2.40;;;39.70;99.90;;;;;;6195099;23;20100;-89
2023/08/22 13:43:12;;;;;;;4.05;3.08;;;40.20;99.90;;;;;;6275728;22;20031;-89
2023/08/22 13:46:02;;;;;;;6.28;2.70;;;41.40;99.90;;;;;;6260812;22;20363;-87
2023/08/22 13:48:49;;;;;;;3.75;2.67;;;41.70;99.90;;;;;;6283679;22;20099;-87
2023/08/22 13:51:36;;;;;;;5.68;2.70;;;42.60;99.90;;;;;;6279946;22;20435;-87
2023/08/22 13:54:26;;;;;;;6.57;2.65;;;42.30;99.90;;;;;;6281255;22;20079;-90
2023/08/22 13:57:31;;;;;;;5.65;2.30;;;40.40;99.90;;;;;;6284762;22;20136;-86
2023/08/22 14:05:42;;;;;;;6.65;3.53;;;40.70;99.90;;;;;;6224249;23;20015;-91
2023/08/22 14:08:32;;;;;;;5.25;2.80;;;41.40;99.90;;;;;;6194437;23;20025;-88
2023/08/22 14:19:38;;;;;;;2.67;2.35;;;43.10;99.90;;;;;;6161251;23;20013;-89
2023/08/22 14:22:44;;;;;;;;;;;;;;;;;;;;;
2023/08/22 14:25:59;;;;;;;5.45;2.67;;;43.20;41.80;;;;;;6195004;23;20068;-87
2023/08/22 14:30:02;;;;;;;4.25;2.28;;;43.10;99.90;;;;;;6196811;22;20060;-88
2023/08/22 14:33:12;;;;;;;7.03;2.90;;;43.40;99.90;;;;;;6194719;23;20048;-88
2023/08/22 14:36:05;;;;;;;6.32;2.92;;;41.90;99.90;;;;;;6221625;23;20095;-88
2023/08/22 14:38:52;;;;;;;6.53;2.30;;;42.20;99.90;;;;;;6212384;22;20040;-86
2023/08/22 14:41:40;;;;;;;4.63;2.42;;;42.30;99.90;;;;;;6273758;22;20027;-90
2023/08/22 14:44:28;;;;;;;4.82;2.63;;;42.20;18.80;;;;;;6273525;22;20031;-87
2023/08/22 14:47:17;;;;;;;7.55;2.70;;;42.00;32.60;;;;;;6251914;22;20026;-89
2023/08/22 14:50:23;;;;;;;5.30;2.38;;;41.80;1.00;;;;;;6255295;22;20019;-90
2023/08/22 14:53:26;;;;;;;4.93;3.00;;;42.30;1.00;;;;;;6270729;22;20026;-87
2023/08/22 14:56:13;;;;;;;3.58;2.60;;;41.70;1.00;;;;;;6273113;22;20027;-87
2023/08/22 14:59:08;;;;;;;4.40;3.03;;;41.70;1.00;;;;;;6276648;22;20019;-88
2023/08/22 15:01:57;;;;;;;5.63;2.80;;;41.70;1.00;;;;;;6251869;22;20126;-89
2023/08/22 15:04:50;;;;;;;4.25;2.88;;;41.80;99.90;;;;;;6253192;22;20024;-89
2023/08/22 15:07:42;;;;;;;5.82;2.95;;;40.60;89.10;;;;;;6255146;22;20375;-89
2023/08/22 15:10:30;;;;;;;3.85;2.88;;;40.30;99.90;;;;;;6276209;22;20032;-90
2023/08/22 15:13:20;;;;;;;6.15;2.95;;;40.00;10.90;;;;;;6252519;22;20027;-90
2023/08/22 15:16:13;;;;;;;6.95;2.72;;;39.70;15.80;;;;;;6274381;22;20066;-92
2023/08/22 15:19:07;;;;;;;3.47;3.10;;;39.10;1.00;;;;;;6273071;22;20029;-90
2023/08/22 15:22:29;;;;;;;6.97;3.08;;;38.80;1.00;;;;;;6276546;22;20034;-89
2023/08/22 15:25:33;;;;;;;3.92;3.03;;;39.30;1.00;;;;;;6209347;22;20023;-88
2023/08/22 15:28:26;;;;;;;5.43;3.28;;;38.70;16.70;;;;;;6273217;22;20030;-87
2023/08/22 15:31:13;;;;;;;3.45;3.10;;;37.40;1.00;;;;;;6252227;22;20024;-88
2023/08/22 15:34:22;;;;;;;6.60;3.42;;;37.50;1.00;;;;;;6250363;22;20020;-88
2023/08/22 15:37:17;;;;;;;6.65;3.40;;;36.70;54.70;;;;;;6273959;22;20023;-87
2023/08/22 15:40:16;;;;;;;5.25;3.20;;;36.70;1.00;;;;;;6255405;22;20075;-88
2023/08/22 15:43:03;;;;;;;6.10;3.08;;;36.50;62.90;;;;;;6274178;22;20038;-85
2023/08/22 15:45:54;;;;;;;6.20;3.38;;;36.50;57.10;;;;;;6274130;22;20038;-89
2023/08/22 15:48:42;;;;;;;6.60;3.23;;;36.80;1.00;;;;;;6276600;22;20105;-86
2023/08/22 15:51:32;;;;;;;4.82;3.28;;;36.40;1.00;;;;;;6254074;22;20027;-89
2023/08/22 15:54:19;;;;;;;7.07;3.40;;;35.20;1.00;;;;;;6274928;22;20039;-85
2023/08/22 15:57:06;;;;;;;4.68;3.65;;;34.10;1.00;;;;;;6274757;22;20028;-87
2023/08/22 15:59:53;;;;;;;5.45;3.10;;;33.00;1.00;;;;;;6275527;22;20474;-88
2023/08/22 16:02:41;;;;;;;4.22;3.30;;;32.20;1.00;;;;;;6254066;22;20424;-86
2023/08/22 16:05:28;;;;;;;4.82;3.50;;;32.50;1.00;;;;;;6274953;22;20036;-87
2023/08/22 16:08:15;;;;;;;5.38;3.45;;;33.10;1.00;;;;;;6254029;22;20024;-90
2023/08/22 16:11:03;;;;;;;5.80;3.25;;;33.50;1.00;;;;;;6253120;22;20291;-90
2023/08/22 16:14:11;;;;;;;6.03;3.25;;;34.10;1.00;;;;;;6275875;22;20113;-92
2023/08/22 16:16:59;;;;;;;5.97;3.28;;;34.10;1.00;;;;;;6253016;22;20342;-89
2023/08/22 16:19:50;;;;;;;6.75;3.10;;;33.90;1.00;;;;;;6275212;22;20028;-86
2023/08/22 16:22:37;;;;;;;5.53;3.55;;;33.20;1.00;;;;;;6250859;22;20027;-86
2023/08/22 16:25:24;;;;;;;5.25;3.28;;;32.70;1.00;;;;;;6253753;22;20031;-85
2023/08/22 16:28:14;;;;;;;5.68;3.00;;;32.10;1.00;;;;;;6252949;22;20024;-85
2023/08/22 16:31:01;;;;;;;5.72;3.65;;;31.60;1.00;;;;;;6273691;22;20023;-84
2023/08/22 16:33:49;;;;;;;4.63;3.30;;;31.20;1.00;;;;;;6254507;22;20785;-88
2023/08/22 16:36:36;;;;;;;4.75;3.10;;;31.00;1.00;;;;;;6251272;22;20023;-86
2023/08/22 16:43:37;;;;;;;8.15;3.67;;;30.50;1.00;;;;;;6276232;22;20073;-87
2023/08/22 16:46:33;;;;;;;7.95;3.80;;;30.30;1.00;;;;;;6253196;22;20024;-87
2023/08/22 16:49:47;;;;;;;6.25;3.70;;;30.10;1.00;;;;;;6256406;22;20066;-88
2023/08/22 16:52:35;;;;;;;5.03;3.63;;;29.90;1.00;;;;;;6253810;22;20023;-91
2023/08/22 16:55:26;;;;;;;4.97;3.60;;;29.60;1.00;;;;;;6276431;22;20034;-88
2023/08/22 16:58:14;;;;;;;7.57;3.53;;;29.40;1.00;;;;;;6255749;22;20098;-87
2023/08/22 17:01:01;;;;;;;7.13;3.97;;;29.30;1.00;;;;;;6255090;22;20302;-88
2023/08/22 17:03:52;;;;;;;7.80;3.55;;;29.20;1.00;;;;;;6256514;22;20030;-89
2023/08/22 17:06:43;;;;;;;6.73;3.97;;;29.10;1.00;;;;;;6275554;22;20318;-88
2023/08/22 17:09:36;;;;;;;4.77;3.43;;;29.00;1.00;;;;;;6253668;22;20027;-86
2023/08/22 17:12:32;;;;;;;4.07;3.40;;;28.90;1.00;;;;;;6276168;22;20161;-90
2023/08/22 17:15:25;;;;;;;6.15;3.53;;;28.90;1.00;;;;;;6256533;22;20292;-88
2023/08/22 17:18:21;;;;;;;;;;;28.80;5.20;;;;;;6255339;22;20378;-86
2023/08/22 17:21:11;;;;;;;4.82;3.90;;;28.60;1.00;;;;;;6279910;22;19915;-89
2023/08/22 17:23:58;;;;;;;5.70;3.50;;;28.50;1.00;;;;;;6287260;22;20030;-88
2023/08/22 17:26:49;;;;;;;4.53;3.35;;;28.40;1.00;;;;;;6261804;22;20031;-88
2023/08/22 17:29:38;;;;;;;7.20;3.95;;;28.30;7.90;;;;;;6284110;22;20038;-86
2023/08/22 17:32:29;;;;;;;4.50;3.13;;;28.20;5.60;;;;;;6262082;22;20108;-87
2023/08/22 17:35:17;;;;;;;5.82;4.05;;;28.00;1.00;;;;;;6262846;22;20126;-87
2023/08/22 17:38:04;;;;;;;7.40;3.45;;;27.90;1.00;;;;;;6260376;22;20119;-88
2023/08/22 17:41:04;;;;;;;9.13;3.72;;;27.70;7.50;;;;;;6253999;22;20300;-88
2023/08/22 17:43:54;;;;;;;9.68;3.75;;;27.70;4.60;;;;;;6253135;22;20031;-86
2023/08/22 17:46:41;;;;;;;3.83;3.20;;;27.60;1.00;;;;;;6253117;22;20027;-86
2023/08/22 17:49:28;;;;;;;6.13;3.60;;;27.60;11.00;;;;;;6275789;22;20023;-88
2023/08/22 17:52:18;;;;;;;5.03;3.55;;;27.50;10.60;;;;;;6275738;22;20028;-85
2023/08/22 17:55:06;;;;;;;5.38;3.30;;;27.40;18.80;;;;;;6274254;22;20480;-84
2023/08/22 17:57:53;;;;;;;8.98;3.67;;;27.20;29.70;;;;;;6274740;22;20110;-85
2023/08/22 18:00:45;;;;;;;6.15;3.67;;;27.10;38.20;;;;;;6252947;22;20024;-83
2023/08/22 18:03:32;;;;;;;6.07;3.40;;;27.10;39.60;;;;;;6276037;22;20049;-84
2023/08/22 18:06:19;;;;;;;4.97;3.60;;;27.00;39.10;;;;;;6272778;22;20024;-84
2023/08/22 18:09:07;;;;;;;6.95;3.70;;;27.00;21.30;;;;;;6274460;22;20414;-84
2023/08/22 18:11:54;;;;;;;9.18;4.00;;;26.90;40.60;;;;;;6273401;22;20039;-83